Terminal Aerodrome Forecast
Issued by NWS Green Bay, WI

Home | Current Version | Previous Version | Graphics & Text | Print | Product List | Glossary On
Versions: 1 2 3 4 5 6 7 8 9 10 11 12 13 14 15 16 17 18 19 20 21 22 23 24 25 26 27 28 29 30 31 32 33 34 35 36 37 38 39 40 41 42 43 44
000
FTUS43 KGRB 202300
TAFGRB
TAF
KGRB 202339Z 2100/2124 27006KT P6SM SCT050 BKN250
     FM210200 VRB03KT P6SM SCT050 BKN140
     FM210500 03007KT 6SM -SHRA BR SCT035 OVC070
      TEMPO 2105/2107 3SM TSRA OVC030CB
     FM210800 36009KT 5SM -RA BR SCT015 OVC025
      TEMPO 2109/2113 3SM RA BR BKN008 OVC015
     FM211400 36013G20KT P6SM BKN020
     FM211800 36012G18KT P6SM SCT035
     FM212300 03007KT P6SM SKC=

USA.gov is the U.S. government's official web portal to all federal, state and local government web resources and services.